createdAt,value
2023-09-01T00:04:32.387Z,68
2023-09-01T00:14:43.436Z,69
2023-09-01T00:24:44.908Z,69
2023-09-01T00:34:54.890Z,69
2023-09-01T00:45:02.086Z,69
2023-09-01T00:55:11.123Z,70
2023-09-01T01:05:21.477Z,68
2023-09-01T01:15:20.530Z,68
2023-09-01T01:25:29.699Z,70
2023-09-01T01:35:38.836Z,71
2023-09-01T01:45:47.955Z,71
2023-09-01T01:55:56.888Z,71
2023-09-01T02:06:06.303Z,72
2023-09-01T02:16:14.950Z,72
2023-09-01T02:26:23.633Z,72
2023-09-01T02:36:32.246Z,73
2023-09-01T02:46:40.908Z,73
2023-09-01T02:56:49.445Z,73
2023-09-01T03:06:58.174Z,73
2023-09-01T03:17:07.192Z,72
2023-09-01T03:27:16.237Z,73
2023-09-01T03:37:25.235Z,73
2023-09-01T03:47:34.307Z,73
2023-09-01T03:57:43.262Z,73
2023-09-01T04:07:52.234Z,73
2023-09-01T04:18:01.229Z,73
2023-09-01T04:28:10.114Z,73
2023-09-01T04:38:18.568Z,73
2023-09-01T04:48:27.563Z,72
2023-09-01T04:58:36.621Z,71
2023-09-01T05:08:45.651Z,70
2023-09-01T05:18:54.632Z,70
2023-09-01T05:29:03.618Z,69
2023-09-01T05:39:12.684Z,67
2023-09-01T05:49:21.728Z,65
2023-09-01T05:59:31.110Z,66
2023-09-01T06:09:31.804Z,67
2023-09-01T06:19:40.884Z,66
2023-09-01T06:29:50.092Z,65
2023-09-01T06:40:00.497Z,64
2023-09-01T06:50:00.716Z,63
2023-09-01T07:00:09.790Z,63
2023-09-01T07:10:19.558Z,62
2023-09-01T07:20:21.262Z,62
2023-09-01T07:30:20.465Z,59
2023-09-01T07:40:21.336Z,55
2023-09-01T07:50:30.363Z,56
2023-09-01T08:00:32.984Z,53
2023-09-01T08:10:32.876Z,51
2023-09-01T08:30:44.182Z,51
2023-09-01T09:11:01.337Z,55
2023-09-01T09:21:11.681Z,55
2023-09-01T09:31:12.266Z,54
2023-09-01T09:41:17.561Z,51
2023-09-01T09:51:28.053Z,51
2023-09-01T10:01:35.200Z,54
2023-09-01T10:11:40.236Z,51
2023-09-01T10:21:46.596Z,51
2023-09-01T10:31:52.452Z,53
2023-09-01T10:41:57.905Z,49
2023-09-01T10:52:00.549Z,51
2023-09-01T11:02:07.732Z,52
2023-09-01T11:12:13.470Z,53
2023-09-01T11:22:19.643Z,51
2023-09-01T11:32:31.321Z,49
2023-09-01T11:42:31.586Z,51
2023-09-01T11:52:39.553Z,49
2023-09-01T12:02:38.784Z,48
2023-09-01T12:12:50.424Z,45
2023-09-01T12:23:03.897Z,46
2023-09-01T12:32:52.466Z,43
2023-09-01T12:43:00.992Z,45
2023-09-01T12:52:52.515Z,45
2023-09-01T13:03:03.943Z,43
2023-09-01T13:13:03.894Z,45
2023-09-01T13:23:02.862Z,45
2023-09-01T13:33:11.865Z,46
2023-09-01T13:43:20.855Z,48
2023-09-01T13:53:32.199Z,49
2023-09-01T14:03:35.849Z,53
2023-09-01T14:13:47.204Z,53
2023-09-01T14:23:47.331Z,53
2023-09-01T14:33:50.709Z,54
2023-09-01T14:44:00.225Z,53
2023-09-01T14:54:14.571Z,54
2023-09-01T15:04:12.191Z,56
2023-09-01T15:14:15.035Z,56
2023-09-01T15:24:23.903Z,55
2023-09-01T15:34:25.428Z,55
2023-09-01T15:44:28.779Z,59
2023-09-01T15:54:35.113Z,57
2023-09-01T16:04:41.447Z,57
2023-09-01T16:14:50.651Z,58
2023-09-01T16:24:52.845Z,59
2023-09-01T16:34:56.151Z,61
2023-09-01T16:45:05.992Z,63
2023-09-01T16:55:06.162Z,66
2023-09-01T17:05:05.006Z,66
2023-09-01T17:15:06.636Z,65
2023-09-01T17:25:09.643Z,65
2023-09-01T17:35:10.053Z,64
2023-09-01T17:45:15.771Z,63
2023-09-01T17:55:17.407Z,65
2023-09-01T18:05:16.434Z,67
2023-09-01T18:15:26.085Z,67
2023-09-01T18:25:35.171Z,66
2023-09-01T18:35:45.347Z,66
2023-09-01T18:45:44.514Z,66
2023-09-01T18:55:53.503Z,66
2023-09-01T19:06:02.425Z,66
2023-09-01T19:16:11.483Z,66
2023-09-01T19:26:12.656Z,66
2023-09-01T19:36:11.595Z,65
2023-09-01T19:46:24.215Z,65
2023-09-01T19:56:27.828Z,65
2023-09-01T20:06:28.034Z,63
2023-09-01T20:16:37.230Z,62
2023-09-01T20:26:47.815Z,65
2023-09-01T20:36:48.480Z,65
2023-09-01T20:46:47.736Z,64
2023-09-01T20:56:48.454Z,65
2023-09-01T21:06:59.667Z,65
2023-09-01T21:17:13.267Z,65
2023-09-01T21:27:27.137Z,65
2023-09-01T21:37:14.351Z,65
2023-09-01T21:47:24.194Z,65
2023-09-01T21:57:26.108Z,66
2023-09-01T22:07:35.064Z,67
2023-09-01T22:17:43.861Z,67
2023-09-01T22:27:52.679Z,67
2023-09-01T22:38:11.927Z,65
2023-09-01T22:48:08.568Z,65
2023-09-01T22:58:17.452Z,65
2023-09-01T23:08:26.657Z,66
2023-09-01T23:18:35.606Z,65
2023-09-01T23:28:44.509Z,66
2023-09-01T23:38:55.321Z,67
2023-09-01T23:48:55.606Z,67
2023-09-01T23:58:55.850Z,68
